sensor_id;sensor_type;location;lat;lon;timestamp;P1;durP1;ratioP1;P2;durP2;ratioP2
12788;SDS011;6458;42.710;23.192;2024-03-23T00:51:55;7.43;;;6.30;;
12788;SDS011;6458;42.710;23.192;2024-03-23T00:54:22;6.33;;;5.73;;
12788;SDS011;6458;42.710;23.192;2024-03-23T00:56:48;6.13;;;5.33;;
12788;SDS011;6458;42.710;23.192;2024-03-23T00:59:16;8.03;;;6.17;;
12788;SDS011;6458;42.710;23.192;2024-03-23T01:01:43;9.90;;;6.20;;
12788;SDS011;6458;42.710;23.192;2024-03-23T01:04:08;8.37;;;5.87;;
12788;SDS011;6458;42.710;23.192;2024-03-23T01:06:35;12.47;;;7.57;;
12788;SDS011;6458;42.710;23.192;2024-03-23T01:09:01;10.20;;;8.33;;
12788;SDS011;6458;42.710;23.192;2024-03-23T01:11:28;10.63;;;8.33;;
12788;SDS011;6458;42.710;23.192;2024-03-23T01:13:57;13.13;;;9.73;;
12788;SDS011;6458;42.710;23.192;2024-03-23T01:16:25;12.83;;;9.03;;
12788;SDS011;6458;42.710;23.192;2024-03-23T01:18:51;11.93;;;8.43;;
12788;SDS011;6458;42.710;23.192;2024-03-23T01:21:20;12.70;;;9.93;;
12788;SDS011;6458;42.710;23.192;2024-03-23T01:23:46;13.07;;;10.63;;
12788;SDS011;6458;42.710;23.192;2024-03-23T01:26:13;13.53;;;10.10;;
12788;SDS011;6458;42.710;23.192;2024-03-23T01:28:40;19.47;;;11.07;;
12788;SDS011;6458;42.710;23.192;2024-03-23T01:31:07;12.13;;;10.20;;
12788;SDS011;6458;42.710;23.192;2024-03-23T01:33:36;14.37;;;10.67;;
12788;SDS011;6458;42.710;23.192;2024-03-23T01:36:05;14.77;;;10.37;;
12788;SDS011;6458;42.710;23.192;2024-03-23T01:38:32;17.43;;;10.20;;
12788;SDS011;6458;42.710;23.192;2024-03-23T01:40:59;14.53;;;10.40;;
12788;SDS011;6458;42.710;23.192;2024-03-23T01:43:25;14.07;;;10.20;;
12788;SDS011;6458;42.710;23.192;2024-03-23T01:45:53;12.70;;;10.00;;
12788;SDS011;6458;42.710;23.192;2024-03-23T01:48:19;13.20;;;10.23;;
12788;SDS011;6458;42.710;23.192;2024-03-23T01:50:48;14.20;;;10.90;;
12788;SDS011;6458;42.710;23.192;2024-03-23T01:53:14;12.90;;;10.00;;
12788;SDS011;6458;42.710;23.192;2024-03-23T01:55:42;12.80;;;9.90;;
12788;SDS011;6458;42.710;23.192;2024-03-23T01:58:08;12.17;;;10.60;;
12788;SDS011;6458;42.710;23.192;2024-03-23T02:00:35;17.77;;;11.17;;
12788;SDS011;6458;42.710;23.192;2024-03-23T02:03:01;13.23;;;10.20;;
12788;SDS011;6458;42.710;23.192;2024-03-23T02:05:29;13.73;;;10.30;;
12788;SDS011;6458;42.710;23.192;2024-03-23T02:07:56;13.03;;;10.00;;
12788;SDS011;6458;42.710;23.192;2024-03-23T02:10:23;11.73;;;10.17;;
12788;SDS011;6458;42.710;23.192;2024-03-23T02:12:49;14.07;;;10.37;;
12788;SDS011;6458;42.710;23.192;2024-03-23T02:15:27;13.33;;;10.13;;
12788;SDS011;6458;42.710;23.192;2024-03-23T02:17:59;12.97;;;10.37;;
12788;SDS011;6458;42.710;23.192;2024-03-23T02:20:41;14.43;;;10.70;;
12788;SDS011;6458;42.710;23.192;2024-03-23T02:26:34;15.73;;;12.10;;
12788;SDS011;6458;42.710;23.192;2024-03-23T02:29:21;16.30;;;12.63;;
12788;SDS011;6458;42.710;23.192;2024-03-23T02:32:12;19.37;;;14.43;;
12788;SDS011;6458;42.710;23.192;2024-03-23T02:34:44;19.90;;;14.20;;
12788;SDS011;6458;42.710;23.192;2024-03-23T02:37:23;15.33;;;11.83;;
12788;SDS011;6458;42.710;23.192;2024-03-23T02:40:15;15.17;;;11.30;;
12788;SDS011;6458;42.710;23.192;2024-03-23T02:42:48;17.50;;;11.80;;
12788;SDS011;6458;42.710;23.192;2024-03-23T02:49:08;18.80;;;12.00;;
12788;SDS011;6458;42.710;23.192;2024-03-23T02:52:33;15.13;;;11.77;;
12788;SDS011;6458;42.710;23.192;2024-03-23T02:55:02;12.90;;;10.07;;
12788;SDS011;6458;42.710;23.192;2024-03-23T03:00:43;15.33;;;11.43;;
12788;SDS011;6458;42.710;23.192;2024-03-23T03:06:50;18.63;;;13.73;;
12788;SDS011;6458;42.710;23.192;2024-03-23T03:09:21;23.00;;;15.73;;
12788;SDS011;6458;42.710;23.192;2024-03-23T03:11:51;18.33;;;14.80;;
12788;SDS011;6458;42.710;23.192;2024-03-23T03:14:17;19.03;;;14.03;;
12788;SDS011;6458;42.710;23.192;2024-03-23T03:16:47;14.40;;;8.90;;
12788;SDS011;6458;42.710;23.192;2024-03-23T03:19:13;10.07;;;8.23;;
12788;SDS011;6458;42.710;23.192;2024-03-23T03:21:41;14.27;;;9.70;;
12788;SDS011;6458;42.710;23.192;2024-03-23T03:24:07;13.43;;;8.10;;
12788;SDS011;6458;42.710;23.192;2024-03-23T03:26:34;15.90;;;8.83;;
12788;SDS011;6458;42.710;23.192;2024-03-23T03:29:00;15.37;;;7.83;;
12788;SDS011;6458;42.710;23.192;2024-03-23T03:31:27;9.87;;;7.70;;
12788;SDS011;6458;42.710;23.192;2024-03-23T03:33:54;11.33;;;7.57;;
12788;SDS011;6458;42.710;23.192;2024-03-23T03:36:21;10.70;;;8.37;;
12788;SDS011;6458;42.710;23.192;2024-03-23T03:38:47;15.80;;;8.13;;
12788;SDS011;6458;42.710;23.192;2024-03-23T03:41:14;9.50;;;7.83;;
12788;SDS011;6458;42.710;23.192;2024-03-23T03:43:40;8.30;;;7.37;;
12788;SDS011;6458;42.710;23.192;2024-03-23T03:46:07;8.00;;;6.30;;
12788;SDS011;6458;42.710;23.192;2024-03-23T03:48:33;9.73;;;6.00;;
12788;SDS011;6458;42.710;23.192;2024-03-23T03:51:01;9.37;;;7.23;;
12788;SDS011;6458;42.710;23.192;2024-03-23T03:53:27;13.47;;;6.47;;
12788;SDS011;6458;42.710;23.192;2024-03-23T03:55:54;8.97;;;6.30;;
12788;SDS011;6458;42.710;23.192;2024-03-23T03:58:20;11.40;;;7.00;;
12788;SDS011;6458;42.710;23.192;2024-03-23T04:00:47;17.73;;;9.33;;
12788;SDS011;6458;42.710;23.192;2024-03-23T04:03:13;7.23;;;6.17;;
12788;SDS011;6458;42.710;23.192;2024-03-23T04:05:39;9.53;;;6.57;;
12788;SDS011;6458;42.710;23.192;2024-03-23T04:08:07;7.07;;;6.37;;
12788;SDS011;6458;42.710;23.192;2024-03-23T04:10:34;12.27;;;7.67;;
12788;SDS011;6458;42.710;23.192;2024-03-23T04:13:00;10.73;;;6.73;;
12788;SDS011;6458;42.710;23.192;2024-03-23T04:15:29;7.90;;;7.03;;
12788;SDS011;6458;42.710;23.192;2024-03-23T04:17:55;11.23;;;6.67;;
12788;SDS011;6458;42.710;23.192;2024-03-23T04:20:22;10.30;;;6.77;;
12788;SDS011;6458;42.710;23.192;2024-03-23T04:22:47;13.97;;;8.07;;
12788;SDS011;6458;42.710;23.192;2024-03-23T04:25:16;11.17;;;7.53;;
12788;SDS011;6458;42.710;23.192;2024-03-23T04:27:44;10.47;;;8.70;;
12788;SDS011;6458;42.710;23.192;2024-03-23T04:30:12;11.23;;;7.93;;
12788;SDS011;6458;42.710;23.192;2024-03-23T04:32:38;13.77;;;7.43;;
12788;SDS011;6458;42.710;23.192;2024-03-23T04:35:05;12.43;;;6.77;;
12788;SDS011;6458;42.710;23.192;2024-03-23T04:37:31;9.10;;;6.73;;
12788;SDS011;6458;42.710;23.192;2024-03-23T04:39:59;8.73;;;6.83;;
12788;SDS011;6458;42.710;23.192;2024-03-23T04:42:28;11.93;;;7.93;;
12788;SDS011;6458;42.710;23.192;2024-03-23T04:44:56;11.00;;;7.90;;
12788;SDS011;6458;42.710;23.192;2024-03-23T04:47:23;8.90;;;7.37;;
12788;SDS011;6458;42.710;23.192;2024-03-23T04:49:50;10.67;;;7.23;;
12788;SDS011;6458;42.710;23.192;2024-03-23T04:52:17;9.90;;;6.73;;
12788;SDS011;6458;42.710;23.192;2024-03-23T04:54:44;8.17;;;6.43;;
12788;SDS011;6458;42.710;23.192;2024-03-23T04:57:11;8.33;;;6.50;;
12788;SDS011;6458;42.710;23.192;2024-03-23T04:59:39;8.17;;;6.80;;
12788;SDS011;6458;42.710;23.192;2024-03-23T05:02:06;7.70;;;6.33;;
12788;SDS011;6458;42.710;23.192;2024-03-23T05:04:33;10.33;;;7.60;;
12788;SDS011;6458;42.710;23.192;2024-03-23T05:06:58;12.27;;;7.07;;
12788;SDS011;6458;42.710;23.192;2024-03-23T05:09:26;11.37;;;6.70;;
12788;SDS011;6458;42.710;23.192;2024-03-23T05:11:55;13.03;;;7.07;;
12788;SDS011;6458;42.710;23.192;2024-03-23T05:14:22;11.50;;;7.10;;
12788;SDS011;6458;42.710;23.192;2024-03-23T05:16:49;9.60;;;6.13;;
12788;SDS011;6458;42.710;23.192;2024-03-23T05:19:16;9.47;;;7.30;;
12788;SDS011;6458;42.710;23.192;2024-03-23T05:21:42;9.17;;;6.37;;
12788;SDS011;6458;42.710;23.192;2024-03-23T05:24:09;8.50;;;6.83;;
12788;SDS011;6458;42.710;23.192;2024-03-23T05:26:35;11.73;;;7.73;;
12788;SDS011;6458;42.710;23.192;2024-03-23T05:29:02;8.57;;;6.43;;
12788;SDS011;6458;42.710;23.192;2024-03-23T05:31:29;10.20;;;7.20;;
12788;SDS011;6458;42.710;23.192;2024-03-23T05:33:59;10.20;;;7.07;;
12788;SDS011;6458;42.710;23.192;2024-03-23T05:36:25;10.17;;;6.53;;
12788;SDS011;6458;42.710;23.192;2024-03-23T05:38:52;10.40;;;7.53;;
12788;SDS011;6458;42.710;23.192;2024-03-23T05:41:17;9.20;;;7.30;;
12788;SDS011;6458;42.710;23.192;2024-03-23T05:43:45;9.87;;;6.90;;
12788;SDS011;6458;42.710;23.192;2024-03-23T05:46:11;8.30;;;7.07;;
12788;SDS011;6458;42.710;23.192;2024-03-23T05:48:38;12.53;;;8.63;;
12788;SDS011;6458;42.710;23.192;2024-03-23T05:51:05;9.93;;;8.30;;
12788;SDS011;6458;42.710;23.192;2024-03-23T05:53:33;11.40;;;8.40;;
12788;SDS011;6458;42.710;23.192;2024-03-23T05:56:02;11.50;;;9.33;;
12788;SDS011;6458;42.710;23.192;2024-03-23T05:58:30;12.17;;;8.07;;
12788;SDS011;6458;42.710;23.192;2024-03-23T06:00:59;9.50;;;8.07;;
12788;SDS011;6458;42.710;23.192;2024-03-23T06:03:27;9.60;;;8.03;;
12788;SDS011;6458;42.710;23.192;2024-03-23T06:05:54;8.60;;;7.80;;
12788;SDS011;6458;42.710;23.192;2024-03-23T06:08:23;10.53;;;8.60;;
12788;SDS011;6458;42.710;23.192;2024-03-23T06:10:49;9.77;;;8.60;;
12788;SDS011;6458;42.710;23.192;2024-03-23T06:13:16;10.60;;;9.17;;
12788;SDS011;6458;42.710;23.192;2024-03-23T06:15:43;11.83;;;8.50;;
12788;SDS011;6458;42.710;23.192;2024-03-23T06:18:11;11.70;;;9.73;;
12788;SDS011;6458;42.710;23.192;2024-03-23T06:20:37;11.23;;;9.33;;
12788;SDS011;6458;42.710;23.192;2024-03-23T06:23:04;14.57;;;10.10;;
12788;SDS011;6458;42.710;23.192;2024-03-23T06:25:31;12.07;;;9.33;;
12788;SDS011;6458;42.710;23.192;2024-03-23T06:27:58;15.77;;;10.53;;
12788;SDS011;6458;42.710;23.192;2024-03-23T06:30:26;12.03;;;10.43;;
12788;SDS011;6458;42.710;23.192;2024-03-23T06:32:54;13.27;;;11.30;;
12788;SDS011;6458;42.710;23.192;2024-03-23T06:35:20;12.03;;;10.20;;
12788;SDS011;6458;42.710;23.192;2024-03-23T06:37:47;13.70;;;11.30;;
12788;SDS011;6458;42.710;23.192;2024-03-23T06:43:07;16.03;;;12.63;;
12788;SDS011;6458;42.710;23.192;2024-03-23T06:45:33;20.17;;;13.00;;
12788;SDS011;6458;42.710;23.192;2024-03-23T06:48:02;13.57;;;10.53;;
12788;SDS011;6458;42.710;23.192;2024-03-23T06:50:28;15.70;;;9.23;;
12788;SDS011;6458;42.710;23.192;2024-03-23T06:52:55;17.80;;;10.53;;
12788;SDS011;6458;42.710;23.192;2024-03-23T06:55:21;18.00;;;10.67;;
12788;SDS011;6458;42.710;23.192;2024-03-23T06:57:51;17.90;;;11.40;;
12788;SDS011;6458;42.710;23.192;2024-03-23T07:00:17;16.20;;;10.80;;
12788;SDS011;6458;42.710;23.192;2024-03-23T07:02:45;14.90;;;10.33;;
12788;SDS011;6458;42.710;23.192;2024-03-23T07:05:10;14.10;;;10.27;;
12788;SDS011;6458;42.710;23.192;2024-03-23T07:07:37;14.80;;;10.70;;
12788;SDS011;6458;42.710;23.192;2024-03-23T07:10:04;18.30;;;11.80;;
12788;SDS011;6458;42.710;23.192;2024-03-23T07:12:32;15.97;;;11.33;;
12788;SDS011;6458;42.710;23.192;2024-03-23T07:15:00;16.73;;;11.20;;
12788;SDS011;6458;42.710;23.192;2024-03-23T07:17:27;17.60;;;12.20;;
12788;SDS011;6458;42.710;23.192;2024-03-23T07:19:53;16.30;;;11.37;;
12788;SDS011;6458;42.710;23.192;2024-03-23T07:22:20;14.73;;;11.53;;
12788;SDS011;6458;42.710;23.192;2024-03-23T07:24:46;15.10;;;11.03;;
12788;SDS011;6458;42.710;23.192;2024-03-23T07:27:13;14.63;;;10.13;;
12788;SDS011;6458;42.710;23.192;2024-03-23T07:29:38;11.67;;;9.90;;
12788;SDS011;6458;42.710;23.192;2024-03-23T07:32:07;12.97;;;10.30;;
12788;SDS011;6458;42.710;23.192;2024-03-23T07:34:33;18.47;;;11.80;;
12788;SDS011;6458;42.710;23.192;2024-03-23T07:37:00;18.67;;;10.73;;
12788;SDS011;6458;42.710;23.192;2024-03-23T07:39:25;14.43;;;10.33;;
12788;SDS011;6458;42.710;23.192;2024-03-23T07:41:53;13.67;;;10.37;;
12788;SDS011;6458;42.710;23.192;2024-03-23T07:44:19;16.17;;;10.67;;
12788;SDS011;6458;42.710;23.192;2024-03-23T07:46:46;12.50;;;9.57;;
12788;SDS011;6458;42.710;23.192;2024-03-23T07:49:13;14.20;;;10.27;;
12788;SDS011;6458;42.710;23.192;2024-03-23T07:51:40;13.03;;;10.20;;
12788;SDS011;6458;42.710;23.192;2024-03-23T07:54:06;14.10;;;9.17;;
12788;SDS011;6458;42.710;23.192;2024-03-23T07:56:33;14.77;;;11.17;;
12788;SDS011;6458;42.710;23.192;2024-03-23T07:58:59;14.07;;;10.27;;
12788;SDS011;6458;42.710;23.192;2024-03-23T08:01:28;14.17;;;10.37;;
12788;SDS011;6458;42.710;23.192;2024-03-23T08:03:54;14.00;;;10.10;;
12788;SDS011;6458;42.710;23.192;2024-03-23T08:06:23;12.93;;;9.90;;
12788;SDS011;6458;42.710;23.192;2024-03-23T08:08:50;13.37;;;10.23;;
12788;SDS011;6458;42.710;23.192;2024-03-23T08:11:24;10.90;;;9.67;;
12788;SDS011;6458;42.710;23.192;2024-03-23T08:13:50;12.00;;;9.93;;
12788;SDS011;6458;42.710;23.192;2024-03-23T08:16:17;16.17;;;9.67;;
12788;SDS011;6458;42.710;23.192;2024-03-23T08:18:44;13.43;;;10.10;;
12788;SDS011;6458;42.710;23.192;2024-03-23T08:21:10;13.23;;;9.07;;
12788;SDS011;6458;42.710;23.192;2024-03-23T08:23:39;13.33;;;9.80;;
12788;SDS011;6458;42.710;23.192;2024-03-23T08:26:05;12.23;;;9.30;;
12788;SDS011;6458;42.710;23.192;2024-03-23T08:28:33;14.83;;;9.77;;
12788;SDS011;6458;42.710;23.192;2024-03-23T08:31:00;14.20;;;9.97;;
12788;SDS011;6458;42.710;23.192;2024-03-23T08:33:30;12.13;;;9.43;;
12788;SDS011;6458;42.710;23.192;2024-03-23T08:35:58;14.17;;;9.73;;
12788;SDS011;6458;42.710;23.192;2024-03-23T08:38:26;10.77;;;9.47;;
12788;SDS011;6458;42.710;23.192;2024-03-23T08:40:58;12.80;;;9.60;;
12788;SDS011;6458;42.710;23.192;2024-03-23T08:43:25;12.87;;;9.53;;
12788;SDS011;6458;42.710;23.192;2024-03-23T08:45:51;15.27;;;9.93;;
12788;SDS011;6458;42.710;23.192;2024-03-23T08:48:18;13.07;;;8.70;;
12788;SDS011;6458;42.710;23.192;2024-03-23T08:50:45;13.83;;;9.40;;
12788;SDS011;6458;42.710;23.192;2024-03-23T08:53:13;13.27;;;10.27;;
12788;SDS011;6458;42.710;23.192;2024-03-23T08:55:39;12.30;;;9.07;;
12788;SDS011;6458;42.710;23.192;2024-03-23T08:58:08;13.90;;;9.63;;
12788;SDS011;6458;42.710;23.192;2024-03-23T09:00:35;10.60;;;8.13;;
12788;SDS011;6458;42.710;23.192;2024-03-23T09:03:02;14.00;;;9.00;;
12788;SDS011;6458;42.710;23.192;2024-03-23T09:05:29;11.20;;;9.20;;
12788;SDS011;6458;42.710;23.192;2024-03-23T09:08:01;11.57;;;9.17;;
12788;SDS011;6458;42.710;23.192;2024-03-23T09:10:27;14.93;;;10.17;;
12788;SDS011;6458;42.710;23.192;2024-03-23T09:12:54;12.60;;;9.67;;
12788;SDS011;6458;42.710;23.192;2024-03-23T09:15:21;15.23;;;9.90;;
12788;SDS011;6458;42.710;23.192;2024-03-23T09:17:48;14.13;;;9.00;;
12788;SDS011;6458;42.710;23.192;2024-03-23T09:20:14;11.43;;;8.97;;
12788;SDS011;6458;42.710;23.192;2024-03-23T09:22:40;13.37;;;9.43;;
12788;SDS011;6458;42.710;23.192;2024-03-23T09:25:07;14.57;;;9.93;;
12788;SDS011;6458;42.710;23.192;2024-03-23T09:27:34;10.57;;;8.47;;
12788;SDS011;6458;42.710;23.192;2024-03-23T09:30:00;11.80;;;9.07;;
12788;SDS011;6458;42.710;23.192;2024-03-23T09:32:28;17.23;;;9.27;;
12788;SDS011;6458;42.710;23.192;2024-03-23T09:34:54;11.33;;;7.80;;
12788;SDS011;6458;42.710;23.192;2024-03-23T09:37:21;10.70;;;8.13;;
12788;SDS011;6458;42.710;23.192;2024-03-23T09:39:47;9.50;;;8.33;;
12788;SDS011;6458;42.710;23.192;2024-03-23T09:42:14;11.50;;;8.30;;
12788;SDS011;6458;42.710;23.192;2024-03-23T09:44:43;12.30;;;8.63;;
12788;SDS011;6458;42.710;23.192;2024-03-23T09:47:10;11.63;;;8.00;;
12788;SDS011;6458;42.710;23.192;2024-03-23T09:49:38;13.67;;;8.73;;
12788;SDS011;6458;42.710;23.192;2024-03-23T09:52:05;13.30;;;8.73;;
12788;SDS011;6458;42.710;23.192;2024-03-23T09:54:31;10.03;;;8.07;;
12788;SDS011;6458;42.710;23.192;2024-03-23T09:56:58;11.00;;;7.90;;
12788;SDS011;6458;42.710;23.192;2024-03-23T09:59:24;9.30;;;8.27;;
12788;SDS011;6458;42.710;23.192;2024-03-23T10:01:52;9.93;;;8.10;;
12788;SDS011;6458;42.710;23.192;2024-03-23T10:07:11;11.73;;;7.10;;
12788;SDS011;6458;42.710;23.192;2024-03-23T10:09:38;12.57;;;7.90;;
12788;SDS011;6458;42.710;23.192;2024-03-23T10:12:08;10.50;;;7.23;;
12788;SDS011;6458;42.710;23.192;2024-03-23T10:14:39;9.90;;;7.30;;
12788;SDS011;6458;42.710;23.192;2024-03-23T10:17:15;9.83;;;6.80;;
12788;SDS011;6458;42.710;23.192;2024-03-23T10:19:44;9.17;;;6.40;;
12788;SDS011;6458;42.710;23.192;2024-03-23T10:22:13;9.57;;;6.83;;
12788;SDS011;6458;42.710;23.192;2024-03-23T10:24:40;8.13;;;6.27;;
12788;SDS011;6458;42.710;23.192;2024-03-23T10:27:07;7.70;;;6.30;;
12788;SDS011;6458;42.710;23.192;2024-03-23T10:29:33;7.53;;;5.73;;
12788;SDS011;6458;42.710;23.192;2024-03-23T10:32:07;9.43;;;5.47;;
12788;SDS011;6458;42.710;23.192;2024-03-23T10:34:56;5.97;;;4.90;;
12788;SDS011;6458;42.710;23.192;2024-03-23T10:37:40;10.13;;;5.53;;
12788;SDS011;6458;42.710;23.192;2024-03-23T10:40:06;7.90;;;5.77;;
12788;SDS011;6458;42.710;23.192;2024-03-23T10:42:36;13.53;;;5.80;;
12788;SDS011;6458;42.710;23.192;2024-03-23T10:45:03;10.00;;;6.17;;
12788;SDS011;6458;42.710;23.192;2024-03-23T10:47:31;7.20;;;6.20;;
12788;SDS011;6458;42.710;23.192;2024-03-23T10:49:59;5.47;;;4.93;;
12788;SDS011;6458;42.710;23.192;2024-03-23T10:52:26;4.07;;;3.70;;
12788;SDS011;6458;42.710;23.192;2024-03-23T10:54:53;4.17;;;3.77;;
12788;SDS011;6458;42.710;23.192;2024-03-23T10:57:21;4.57;;;3.97;;
12788;SDS011;6458;42.710;23.192;2024-03-23T10:59:51;57.20;;;33.13;;
12788;SDS011;6458;42.710;23.192;2024-03-23T11:02:18;25.33;;;13.90;;
12788;SDS011;6458;42.710;23.192;2024-03-23T11:04:45;7.27;;;3.80;;
12788;SDS011;6458;42.710;23.192;2024-03-23T11:07:30;4.77;;;4.20;;
12788;SDS011;6458;42.710;23.192;2024-03-23T11:09:57;4.57;;;3.80;;
12788;SDS011;6458;42.710;23.192;2024-03-23T11:12:28;4.97;;;3.80;;
12788;SDS011;6458;42.710;23.192;2024-03-23T11:14:59;3.47;;;3.20;;
12788;SDS011;6458;42.710;23.192;2024-03-23T11:17:28;23.00;;;13.40;;
12788;SDS011;6458;42.710;23.192;2024-03-23T11:19:54;14.50;;;9.73;;
12788;SDS011;6458;42.710;23.192;2024-03-23T11:22:39;5.33;;;4.17;;
12788;SDS011;6458;42.710;23.192;2024-03-23T11:25:19;4.17;;;3.77;;
12788;SDS011;6458;42.710;23.192;2024-03-23T11:27:47;3.53;;;3.23;;
12788;SDS011;6458;42.710;23.192;2024-03-23T11:30:14;6.37;;;3.77;;
12788;SDS011;6458;42.710;23.192;2024-03-23T11:32:44;5.50;;;4.67;;
12788;SDS011;6458;42.710;23.192;2024-03-23T11:35:24;4.47;;;3.70;;
12788;SDS011;6458;42.710;23.192;2024-03-23T11:38:03;3.37;;;3.03;;
12788;SDS011;6458;42.710;23.192;2024-03-23T11:40:29;16.33;;;9.47;;
12788;SDS011;6458;42.710;23.192;2024-03-23T11:42:57;8.10;;;3.50;;
12788;SDS011;6458;42.710;23.192;2024-03-23T11:45:23;4.50;;;3.40;;
12788;SDS011;6458;42.710;23.192;2024-03-23T11:48:01;3.27;;;2.97;;
12788;SDS011;6458;42.710;23.192;2024-03-23T11:50:27;3.00;;;2.80;;
12788;SDS011;6458;42.710;23.192;2024-03-23T11:53:07;3.43;;;3.03;;
12788;SDS011;6458;42.710;23.192;2024-03-23T11:55:48;2.60;;;2.50;;
12788;SDS011;6458;42.710;23.192;2024-03-23T11:58:16;4.70;;;2.60;;
12788;SDS011;6458;42.710;23.192;2024-03-23T12:00:43;2.43;;;2.33;;
12788;SDS011;6458;42.710;23.192;2024-03-23T12:03:17;2.50;;;2.30;;
12788;SDS011;6458;42.710;23.192;2024-03-23T12:05:47;3.00;;;2.80;;
12788;SDS011;6458;42.710;23.192;2024-03-23T12:08:21;3.97;;;2.47;;
12788;SDS011;6458;42.710;23.192;2024-03-23T12:10:49;3.20;;;2.93;;
12788;SDS011;6458;42.710;23.192;2024-03-23T12:13:18;4.80;;;3.57;;
12788;SDS011;6458;42.710;23.192;2024-03-23T12:15:46;2.70;;;2.50;;
12788;SDS011;6458;42.710;23.192;2024-03-23T12:18:13;2.93;;;2.70;;
12788;SDS011;6458;42.710;23.192;2024-03-23T12:20:39;2.33;;;2.23;;
12788;SDS011;6458;42.710;23.192;2024-03-23T12:23:07;6.00;;;4.80;;
12788;SDS011;6458;42.710;23.192;2024-03-23T12:25:38;5.70;;;3.40;;
12788;SDS011;6458;42.710;23.192;2024-03-23T12:31:36;6.83;;;4.50;;
12788;SDS011;6458;42.710;23.192;2024-03-23T12:34:05;9.47;;;4.73;;
12788;SDS011;6458;42.710;23.192;2024-03-23T12:36:31;4.47;;;2.57;;
12788;SDS011;6458;42.710;23.192;2024-03-23T12:38:59;2.93;;;2.57;;
12788;SDS011;6458;42.710;23.192;2024-03-23T12:41:31;2.83;;;2.63;;
12788;SDS011;6458;42.710;23.192;2024-03-23T12:43:58;2.77;;;2.40;;
12788;SDS011;6458;42.710;23.192;2024-03-23T12:46:29;3.83;;;2.20;;
12788;SDS011;6458;42.710;23.192;2024-03-23T12:48:59;2.33;;;1.90;;
12788;SDS011;6458;42.710;23.192;2024-03-23T12:51:25;4.20;;;2.00;;
12788;SDS011;6458;42.710;23.192;2024-03-23T12:53:52;2.10;;;2.00;;
12788;SDS011;6458;42.710;23.192;2024-03-23T12:56:17;2.40;;;2.27;;
12788;SDS011;6458;42.710;23.192;2024-03-23T12:58:46;2.73;;;2.50;;
12788;SDS011;6458;42.710;23.192;2024-03-23T13:01:15;3.37;;;2.70;;
12788;SDS011;6458;42.710;23.192;2024-03-23T13:03:45;2.40;;;2.20;;
12788;SDS011;6458;42.710;23.192;2024-03-23T13:06:12;2.87;;;2.67;;
12788;SDS011;6458;42.710;23.192;2024-03-23T13:08:39;7.80;;;2.60;;
12788;SDS011;6458;42.710;23.192;2024-03-23T13:11:05;2.67;;;2.50;;
12788;SDS011;6458;42.710;23.192;2024-03-23T13:13:35;2.37;;;2.20;;
12788;SDS011;6458;42.710;23.192;2024-03-23T13:16:03;2.50;;;2.33;;
12788;SDS011;6458;42.710;23.192;2024-03-23T13:18:31;2.60;;;2.40;;
12788;SDS011;6458;42.710;23.192;2024-03-23T13:20:57;2.40;;;2.30;;
12788;SDS011;6458;42.710;23.192;2024-03-23T13:23:24;2.30;;;2.20;;
12788;SDS011;6458;42.710;23.192;2024-03-23T13:25:51;3.13;;;2.50;;
12788;SDS011;6458;42.710;23.192;2024-03-23T13:28:18;2.50;;;2.30;;
12788;SDS011;6458;42.710;23.192;2024-03-23T13:30:49;2.43;;;2.33;;
12788;SDS011;6458;42.710;23.192;2024-03-23T13:33:18;2.80;;;2.60;;
12788;SDS011;6458;42.710;23.192;2024-03-23T13:35:50;2.90;;;2.70;;
12788;SDS011;6458;42.710;23.192;2024-03-23T13:38:17;3.03;;;2.80;;
12788;SDS011;6458;42.710;23.192;2024-03-23T13:40:52;3.20;;;2.90;;
12788;SDS011;6458;42.710;23.192;2024-03-23T13:43:20;3.27;;;2.90;;
12788;SDS011;6458;42.710;23.192;2024-03-23T13:45:46;5.43;;;2.90;;
12788;SDS011;6458;42.710;23.192;2024-03-23T13:48:16;2.97;;;2.80;;
12788;SDS011;6458;42.710;23.192;2024-03-23T13:50:47;8.43;;;3.37;;
12788;SDS011;6458;42.710;23.192;2024-03-23T13:53:14;4.77;;;3.00;;
12788;SDS011;6458;42.710;23.192;2024-03-23T13:55:45;3.33;;;3.13;;
12788;SDS011;6458;42.710;23.192;2024-03-23T13:58:13;3.50;;;3.20;;
12788;SDS011;6458;42.710;23.192;2024-03-23T14:00:39;3.80;;;3.50;;
12788;SDS011;6458;42.710;23.192;2024-03-23T14:03:07;3.83;;;3.20;;
12788;SDS011;6458;42.710;23.192;2024-03-23T14:05:35;3.70;;;3.40;;
12788;SDS011;6458;42.710;23.192;2024-03-23T14:08:09;3.40;;;3.10;;
12788;SDS011;6458;42.710;23.192;2024-03-23T14:10:36;3.37;;;3.20;;
12788;SDS011;6458;42.710;23.192;2024-03-23T14:13:07;3.60;;;3.30;;
12788;SDS011;6458;42.710;23.192;2024-03-23T14:15:33;3.10;;;2.90;;
12788;SDS011;6458;42.710;23.192;2024-03-23T14:18:01;4.80;;;3.20;;
12788;SDS011;6458;42.710;23.192;2024-03-23T14:20:28;4.33;;;3.23;;
12788;SDS011;6458;42.710;23.192;2024-03-23T14:22:58;3.10;;;2.90;;
12788;SDS011;6458;42.710;23.192;2024-03-23T14:25:24;4.67;;;3.23;;
12788;SDS011;6458;42.710;23.192;2024-03-23T14:27:56;6.30;;;3.27;;
12788;SDS011;6458;42.710;23.192;2024-03-23T14:30:23;4.53;;;3.27;;
12788;SDS011;6458;42.710;23.192;2024-03-23T14:32:50;3.97;;;3.63;;
12788;SDS011;6458;42.710;23.192;2024-03-23T14:35:21;6.10;;;3.83;;
12788;SDS011;6458;42.710;23.192;2024-03-23T14:37:48;3.17;;;2.97;;
12788;SDS011;6458;42.710;23.192;2024-03-23T14:40:16;3.53;;;3.27;;
12788;SDS011;6458;42.710;23.192;2024-03-23T14:42:43;3.23;;;2.93;;
12788;SDS011;6458;42.710;23.192;2024-03-23T14:45:08;4.03;;;3.73;;
12788;SDS011;6458;42.710;23.192;2024-03-23T14:47:42;6.07;;;3.13;;
12788;SDS011;6458;42.710;23.192;2024-03-23T14:50:13;5.70;;;3.77;;
12788;SDS011;6458;42.710;23.192;2024-03-23T14:52:41;5.10;;;3.40;;
12788;SDS011;6458;42.710;23.192;2024-03-23T14:55:14;4.03;;;3.33;;
12788;SDS011;6458;42.710;23.192;2024-03-23T14:57:42;5.23;;;4.10;;
12788;SDS011;6458;42.710;23.192;2024-03-23T15:00:09;4.07;;;3.77;;
12788;SDS011;6458;42.710;23.192;2024-03-23T15:02:40;3.90;;;3.50;;
12788;SDS011;6458;42.710;23.192;2024-03-23T15:05:10;3.20;;;3.00;;
12788;SDS011;6458;42.710;23.192;2024-03-23T15:07:36;3.33;;;2.87;;
12788;SDS011;6458;42.710;23.192;2024-03-23T15:10:04;5.70;;;3.23;;
12788;SDS011;6458;42.710;23.192;2024-03-23T15:12:32;3.23;;;3.00;;
12788;SDS011;6458;42.710;23.192;2024-03-23T15:14:59;3.53;;;3.30;;
12788;SDS011;6458;42.710;23.192;2024-03-23T15:17:25;3.20;;;3.00;;
12788;SDS011;6458;42.710;23.192;2024-03-23T15:19:52;3.80;;;3.50;;
12788;SDS011;6458;42.710;23.192;2024-03-23T15:22:19;3.80;;;3.50;;
12788;SDS011;6458;42.710;23.192;2024-03-23T15:24:46;7.60;;;3.33;;
12788;SDS011;6458;42.710;23.192;2024-03-23T15:27:13;3.20;;;2.90;;
12788;SDS011;6458;42.710;23.192;2024-03-23T15:29:41;3.50;;;3.10;;
12788;SDS011;6458;42.710;23.192;2024-03-23T15:32:10;3.63;;;3.33;;
12788;SDS011;6458;42.710;23.192;2024-03-23T15:34:36;3.70;;;3.40;;
12788;SDS011;6458;42.710;23.192;2024-03-23T15:37:21;3.30;;;3.07;;
12788;SDS011;6458;42.710;23.192;2024-03-23T15:39:47;3.30;;;3.00;;
12788;SDS011;6458;42.710;23.192;2024-03-23T15:42:15;3.03;;;2.83;;
12788;SDS011;6458;42.710;23.192;2024-03-23T15:44:43;3.07;;;2.87;;
12788;SDS011;6458;42.710;23.192;2024-03-23T15:47:11;3.57;;;3.30;;
12788;SDS011;6458;42.710;23.192;2024-03-23T15:49:37;3.50;;;3.10;;
12788;SDS011;6458;42.710;23.192;2024-03-23T15:52:05;3.73;;;3.40;;
12788;SDS011;6458;42.710;23.192;2024-03-23T15:54:36;3.13;;;2.93;;
12788;SDS011;6458;42.710;23.192;2024-03-23T15:57:05;3.03;;;2.83;;
12788;SDS011;6458;42.710;23.192;2024-03-23T15:59:32;2.67;;;2.50;;